sensor_id;sensor_type;location;lat;lon;timestamp;pressure;altitude;pressure_sealevel;temperature;humidity
53514;BME280;39768;54.148;12.174;2023-04-28T00:03:05;101844.41;;;6.38;95.36
53514;BME280;39768;54.148;12.174;2023-04-28T00:07:07;101837.72;;;5.77;98.69
53514;BME280;39768;54.148;12.174;2023-04-28T00:11:11;101836.59;;;5.67;99.37
53514;BME280;39768;54.148;12.174;2023-04-28T00:15:12;101842.31;;;5.48;98.95
53514;BME280;39768;54.148;12.174;2023-04-28T00:19:14;101833.34;;;5.41;100.00
53514;BME280;39768;54.148;12.174;2023-04-28T00:23:15;101821.22;;;5.48;99.49
53514;BME280;39768;54.148;12.174;2023-04-28T00:27:17;101833.22;;;5.37;100.00
53514;BME280;39768;54.148;12.174;2023-04-28T00:31:18;101819.91;;;6.03;98.01
53514;BME280;39768;54.148;12.174;2023-04-28T00:35:20;101820.34;;;6.24;94.77
53514;BME280;39768;54.148;12.174;2023-04-28T00:39:22;101819.38;;;6.19;92.43
53514;BME280;39768;54.148;12.174;2023-04-28T00:43:23;101813.22;;;6.18;91.30
53514;BME280;39768;54.148;12.174;2023-04-28T00:47:25;101811.09;;;5.66;98.74
53514;BME280;39768;54.148;12.174;2023-04-28T00:51:26;101812.16;;;5.73;98.97
53514;BME280;39768;54.148;12.174;2023-04-28T00:55:31;101803.19;;;6.02;95.45
53514;BME280;39768;54.148;12.174;2023-04-28T00:59:34;101805.34;;;6.20;92.11
53514;BME280;39768;54.148;12.174;2023-04-28T01:03:38;101802.78;;;6.23;90.74
53514;BME280;39768;54.148;12.174;2023-04-28T01:07:41;101803.66;;;6.25;90.76
53514;BME280;39768;54.148;12.174;2023-04-28T01:11:43;101805.59;;;6.32;89.81
53514;BME280;39768;54.148;12.174;2023-04-28T01:15:49;101809.25;;;6.40;90.21
53514;BME280;39768;54.148;12.174;2023-04-28T01:19:51;101808.50;;;6.46;90.72
53514;BME280;39768;54.148;12.174;2023-04-28T01:23:55;101808.22;;;6.76;87.51
53514;BME280;39768;54.148;12.174;2023-04-28T01:27:56;101806.63;;;5.99;89.41
53514;BME280;39768;54.148;12.174;2023-04-28T01:31:58;101810.41;;;5.01;98.04
53514;BME280;39768;54.148;12.174;2023-04-28T01:35:59;101812.31;;;4.42;100.00
53514;BME280;39768;54.148;12.174;2023-04-28T01:40:01;101810.38;;;4.37;100.00
53514;BME280;39768;54.148;12.174;2023-04-28T01:44:02;101811.16;;;4.97;99.94
53514;BME280;39768;54.148;12.174;2023-04-28T01:48:05;101809.41;;;4.65;98.59
53514;BME280;39768;54.148;12.174;2023-04-28T01:52:07;101813.25;;;4.44;100.00
53514;BME280;39768;54.148;12.174;2023-04-28T01:56:08;101802.78;;;5.12;98.92
53514;BME280;39768;54.148;12.174;2023-04-28T02:00:10;101805.09;;;5.00;97.24
53514;BME280;39768;54.148;12.174;2023-04-28T02:04:21;101795.22;;;5.25;94.78
53514;BME280;39768;54.148;12.174;2023-04-28T02:08:23;101796.69;;;5.14;94.84
53514;BME280;39768;54.148;12.174;2023-04-28T02:12:25;101797.97;;;5.30;92.75
53514;BME280;39768;54.148;12.174;2023-04-28T02:16:27;101798.75;;;5.26;93.47
53514;BME280;39768;54.148;12.174;2023-04-28T02:20:28;101798.34;;;5.11;91.85
53514;BME280;39768;54.148;12.174;2023-04-28T02:24:34;101797.19;;;5.00;94.93
53514;BME280;39768;54.148;12.174;2023-04-28T02:28:37;101800.66;;;5.31;91.96
53514;BME280;39768;54.148;12.174;2023-04-28T02:32:39;101793.81;;;5.05;91.82
53514;BME280;39768;54.148;12.174;2023-04-28T02:36:40;101789.81;;;5.21;90.42
53514;BME280;39768;54.148;12.174;2023-04-28T02:40:42;101788.16;;;4.90;92.02
53514;BME280;39768;54.148;12.174;2023-04-28T02:44:43;101792.19;;;5.45;90.89
53514;BME280;39768;54.148;12.174;2023-04-28T02:48:45;101795.41;;;5.33;89.48
53514;BME280;39768;54.148;12.174;2023-04-28T02:52:46;101787.56;;;5.36;89.58
53514;BME280;39768;54.148;12.174;2023-04-28T02:56:49;101793.38;;;5.23;89.41
53514;BME280;39768;54.148;12.174;2023-04-28T03:00:51;101791.81;;;5.29;89.97
53514;BME280;39768;54.148;12.174;2023-04-28T03:04:52;101779.88;;;5.44;89.34
53514;BME280;39768;54.148;12.174;2023-04-28T03:08:54;101782.78;;;5.56;88.70
53514;BME280;39768;54.148;12.174;2023-04-28T03:12:55;101784.44;;;5.52;89.40
53514;BME280;39768;54.148;12.174;2023-04-28T03:16:56;101782.75;;;5.54;88.47
53514;BME280;39768;54.148;12.174;2023-04-28T03:20:58;101787.13;;;5.54;87.77
53514;BME280;39768;54.148;12.174;2023-04-28T03:25:01;101786.16;;;4.48;100.00
53514;BME280;39768;54.148;12.174;2023-04-28T03:29:07;101787.00;;;4.79;100.00
53514;BME280;39768;54.148;12.174;2023-04-28T03:33:08;101776.03;;;4.95;100.00
53514;BME280;39768;54.148;12.174;2023-04-28T03:37:10;101776.63;;;5.18;97.78
53514;BME280;39768;54.148;12.174;2023-04-28T03:41:12;101771.09;;;5.43;93.77
53514;BME280;39768;54.148;12.174;2023-04-28T03:45:42;101764.28;;;5.53;92.42
53514;BME280;39768;54.148;12.174;2023-04-28T03:49:44;101752.59;;;5.42;92.92
53514;BME280;39768;54.148;12.174;2023-04-28T03:53:45;101751.47;;;5.30;94.54
53514;BME280;39768;54.148;12.174;2023-04-28T03:57:47;101753.75;;;5.53;93.79
53514;BME280;39768;54.148;12.174;2023-04-28T04:01:49;101748.38;;;5.48;93.49
53514;BME280;39768;54.148;12.174;2023-04-28T04:05:50;101752.81;;;5.51;91.74
53514;BME280;39768;54.148;12.174;2023-04-28T04:09:52;101747.38;;;5.07;92.64
53514;BME280;39768;54.148;12.174;2023-04-28T04:13:53;101743.75;;;5.38;95.84
53514;BME280;39768;54.148;12.174;2023-04-28T04:17:57;101740.78;;;5.62;92.94
53514;BME280;39768;54.148;12.174;2023-04-28T04:22:03;101742.69;;;5.69;91.53
53514;BME280;39768;54.148;12.174;2023-04-28T04:26:04;101743.56;;;6.07;90.61
53514;BME280;39768;54.148;12.174;2023-04-28T04:30:07;101739.34;;;6.17;89.17
53514;BME280;39768;54.148;12.174;2023-04-28T04:34:10;101735.31;;;6.34;91.87
53514;BME280;39768;54.148;12.174;2023-04-28T04:38:12;101728.81;;;7.73;82.62
53514;BME280;39768;54.148;12.174;2023-04-28T04:42:14;101730.03;;;10.10;71.09
53514;BME280;39768;54.148;12.174;2023-04-28T04:46:39;101727.09;;;9.48;63.98
53514;BME280;39768;54.148;12.174;2023-04-28T04:50:41;101726.22;;;9.53;64.73
53514;BME280;39768;54.148;12.174;2023-04-28T04:54:44;101723.84;;;10.02;69.52
53514;BME280;39768;54.148;12.174;2023-04-28T04:58:49;101720.41;;;12.01;55.59
53514;BME280;39768;54.148;12.174;2023-04-28T05:03:09;101720.84;;;9.40;69.54
53514;BME280;39768;54.148;12.174;2023-04-28T05:07:13;101720.59;;;9.05;78.47
53514;BME280;39768;54.148;12.174;2023-04-28T05:11:15;101718.56;;;10.13;75.36
53514;BME280;39768;54.148;12.174;2023-04-28T05:15:17;101707.41;;;9.12;80.58
53514;BME280;39768;54.148;12.174;2023-04-28T05:19:37;101708.56;;;9.49;81.86
53514;BME280;39768;54.148;12.174;2023-04-28T05:23:38;101699.69;;;9.50;84.29
53514;BME280;39768;54.148;12.174;2023-04-28T05:27:40;101705.28;;;10.07;79.97
53514;BME280;39768;54.148;12.174;2023-04-28T05:31:43;101709.84;;;10.37;78.07
53514;BME280;39768;54.148;12.174;2023-04-28T05:35:44;101701.88;;;10.46;76.20
53514;BME280;39768;54.148;12.174;2023-04-28T05:39:47;101688.66;;;10.67;74.53
53514;BME280;39768;54.148;12.174;2023-04-28T05:43:49;101695.72;;;10.99;74.05
53514;BME280;39768;54.148;12.174;2023-04-28T05:47:52;101694.78;;;11.50;73.84
53514;BME280;39768;54.148;12.174;2023-04-28T05:51:54;101693.88;;;11.71;73.44
53514;BME280;39768;54.148;12.174;2023-04-28T05:55:55;101694.72;;;11.83;75.16
53514;BME280;39768;54.148;12.174;2023-04-28T05:59:57;101691.16;;;11.74;77.20
53514;BME280;39768;54.148;12.174;2023-04-28T06:03:58;101686.53;;;12.29;74.85
53514;BME280;39768;54.148;12.174;2023-04-28T06:08:01;101681.28;;;12.14;72.25
53514;BME280;39768;54.148;12.174;2023-04-28T06:12:05;101676.53;;;12.64;71.03
53514;BME280;39768;54.148;12.174;2023-04-28T06:16:07;101675.25;;;13.13;68.59
53514;BME280;39768;54.148;12.174;2023-04-28T06:20:09;101666.91;;;12.44;72.65
53514;BME280;39768;54.148;12.174;2023-04-28T06:24:13;101675.88;;;13.39;67.72
53514;BME280;39768;54.148;12.174;2023-04-28T06:28:18;101671.09;;;12.78;66.36
53514;BME280;39768;54.148;12.174;2023-04-28T06:32:19;101661.66;;;13.41;65.15
53514;BME280;39768;54.148;12.174;2023-04-28T06:36:21;101662.69;;;13.25;62.73
53514;BME280;39768;54.148;12.174;2023-04-28T06:40:23;101657.16;;;13.45;61.38
53514;BME280;39768;54.148;12.174;2023-04-28T06:44:29;101655.97;;;13.70;61.17
53514;BME280;39768;54.148;12.174;2023-04-28T06:48:30;101652.38;;;13.74;58.25
53514;BME280;39768;54.148;12.174;2023-04-28T06:52:32;101649.88;;;13.62;58.37
53514;BME280;39768;54.148;12.174;2023-04-28T06:56:40;101647.38;;;13.46;55.65
53514;BME280;39768;54.148;12.174;2023-04-28T07:00:41;101649.81;;;13.65;56.46
53514;BME280;39768;54.148;12.174;2023-04-28T07:04:43;101646.72;;;13.97;54.32
53514;BME280;39768;54.148;12.174;2023-04-28T07:08:44;101648.28;;;14.15;51.24
53514;BME280;39768;54.148;12.174;2023-04-28T07:12:46;101648.25;;;14.17;51.99
53514;BME280;39768;54.148;12.174;2023-04-28T07:16:47;101649.22;;;14.11;49.56
53514;BME280;39768;54.148;12.174;2023-04-28T07:20:49;101644.44;;;14.36;49.80
53514;BME280;39768;54.148;12.174;2023-04-28T07:24:51;101636.00;;;14.02;48.98
53514;BME280;39768;54.148;12.174;2023-04-28T07:28:53;101634.91;;;14.75;48.54
53514;BME280;39768;54.148;12.174;2023-04-28T07:32:54;101640.47;;;14.63;46.36
53514;BME280;39768;54.148;12.174;2023-04-28T07:36:56;101636.22;;;15.03;45.30
53514;BME280;39768;54.148;12.174;2023-04-28T07:40:58;101630.34;;;15.77;46.28
53514;BME280;39768;54.148;12.174;2023-04-28T07:45:00;101617.13;;;15.69;45.67
53514;BME280;39768;54.148;12.174;2023-04-28T07:49:01;101625.59;;;14.45;43.84
53514;BME280;39768;54.148;12.174;2023-04-28T07:53:03;101627.59;;;14.86;44.81
53514;BME280;39768;54.148;12.174;2023-04-28T07:57:04;101614.72;;;15.09;44.44
53514;BME280;39768;54.148;12.174;2023-04-28T08:01:06;101618.94;;;15.69;44.64
53514;BME280;39768;54.148;12.174;2023-04-28T08:05:08;101618.00;;;15.24;42.33
53514;BME280;39768;54.148;12.174;2023-04-28T08:09:11;101619.16;;;16.00;41.05
53514;BME280;39768;54.148;12.174;2023-04-28T08:13:12;101619.47;;;15.40;41.42
53514;BME280;39768;54.148;12.174;2023-04-28T08:17:16;101612.13;;;16.33;41.40
53514;BME280;39768;54.148;12.174;2023-04-28T08:21:18;101618.56;;;16.98;39.28
53514;BME280;39768;54.148;12.174;2023-04-28T08:25:19;101616.34;;;16.04;39.67
53514;BME280;39768;54.148;12.174;2023-04-28T08:29:21;101618.72;;;15.78;38.12
53514;BME280;39768;54.148;12.174;2023-04-28T08:33:23;101622.78;;;15.97;39.77
53514;BME280;39768;54.148;12.174;2023-04-28T08:37:27;101616.41;;;16.41;38.44
53514;BME280;39768;54.148;12.174;2023-04-28T08:41:31;101613.94;;;15.92;38.85
53514;BME280;39768;54.148;12.174;2023-04-28T08:45:40;101615.47;;;17.13;38.30
53514;BME280;39768;54.148;12.174;2023-04-28T08:49:42;101611.38;;;17.33;36.81
53514;BME280;39768;54.148;12.174;2023-04-28T08:53:49;101612.34;;;17.61;34.64
53514;BME280;39768;54.148;12.174;2023-04-28T08:57:57;101608.25;;;16.83;37.25
53514;BME280;39768;54.148;12.174;2023-04-28T09:01:58;101603.16;;;16.72;36.83
53514;BME280;39768;54.148;12.174;2023-04-28T09:06:01;101598.66;;;17.07;34.01
53514;BME280;39768;54.148;12.174;2023-04-28T09:10:15;101591.19;;;16.85;34.98
53514;BME280;39768;54.148;12.174;2023-04-28T09:14:17;101596.34;;;16.57;33.20
53514;BME280;39768;54.148;12.174;2023-04-28T09:18:19;101589.53;;;16.80;33.86
53514;BME280;39768;54.148;12.174;2023-04-28T09:22:26;101584.66;;;16.96;34.35
53514;BME280;39768;54.148;12.174;2023-04-28T09:26:47;101586.00;;;17.12;34.04
53514;BME280;39768;54.148;12.174;2023-04-28T09:30:48;101574.94;;;17.24;33.27
53514;BME280;39768;54.148;12.174;2023-04-28T09:34:51;101585.03;;;18.07;32.07
53514;BME280;39768;54.148;12.174;2023-04-28T09:38:56;101567.34;;;17.71;32.16
53514;BME280;39768;54.148;12.174;2023-04-28T09:42:59;101570.53;;;17.52;32.32
53514;BME280;39768;54.148;12.174;2023-04-28T09:47:19;101558.72;;;17.89;33.32
53514;BME280;39768;54.148;12.174;2023-04-28T09:51:24;101558.63;;;16.99;32.19
53514;BME280;39768;54.148;12.174;2023-04-28T09:55:27;101559.13;;;16.81;33.45
53514;BME280;39768;54.148;12.174;2023-04-28T09:59:28;101553.13;;;17.36;32.44
53514;BME280;39768;54.148;12.174;2023-04-28T10:03:30;101550.81;;;17.53;31.95
53514;BME280;39768;54.148;12.174;2023-04-28T10:07:32;101534.50;;;17.61;32.15
53514;BME280;39768;54.148;12.174;2023-04-28T10:11:36;101528.28;;;18.95;31.50
53514;BME280;39768;54.148;12.174;2023-04-28T10:15:38;101527.56;;;18.65;31.40
53514;BME280;39768;54.148;12.174;2023-04-28T10:19:40;101516.31;;;18.79;30.46
53514;BME280;39768;54.148;12.174;2023-04-28T10:24:08;101498.09;;;19.12;33.08
53514;BME280;39768;54.148;12.174;2023-04-28T10:28:10;101501.53;;;17.85;34.34
53514;BME280;39768;54.148;12.174;2023-04-28T10:36:45;101489.84;;;18.92;30.79
53514;BME280;39768;54.148;12.174;2023-04-28T10:40:48;101479.75;;;18.98;30.68
53514;BME280;39768;54.148;12.174;2023-04-28T10:44:50;101474.94;;;18.83;32.81
53514;BME280;39768;54.148;12.174;2023-04-28T10:48:52;101469.09;;;18.95;31.45
53514;BME280;39768;54.148;12.174;2023-04-28T10:52:54;101465.31;;;18.76;32.03
53514;BME280;39768;54.148;12.174;2023-04-28T10:57:14;101459.06;;;18.76;32.11
53514;BME280;39768;54.148;12.174;2023-04-28T11:05:26;101442.47;;;18.88;30.56
53514;BME280;39768;54.148;12.174;2023-04-28T11:13:32;101433.28;;;19.40;32.10
53514;BME280;39768;54.148;12.174;2023-04-28T11:17:41;101432.91;;;18.03;32.75
53514;BME280;39768;54.148;12.174;2023-04-28T11:21:42;101442.50;;;19.11;30.78
53514;BME280;39768;54.148;12.174;2023-04-28T11:25:55;101429.31;;;19.03;29.59
53514;BME280;39768;54.148;12.174;2023-04-28T11:29:57;101434.19;;;20.06;28.96
53514;BME280;39768;54.148;12.174;2023-04-28T11:34:05;101416.47;;;18.63;29.81
53514;BME280;39768;54.148;12.174;2023-04-28T11:38:07;101422.69;;;20.02;29.87
53514;BME280;39768;54.148;12.174;2023-04-28T11:42:10;101425.94;;;20.11;28.20
53514;BME280;39768;54.148;12.174;2023-04-28T11:46:22;101417.50;;;19.54;28.26
53514;BME280;39768;54.148;12.174;2023-04-28T11:50:35;101417.97;;;19.19;29.10
53514;BME280;39768;54.148;12.174;2023-04-28T11:54:37;101423.22;;;19.68;28.73
53514;BME280;39768;54.148;12.174;2023-04-28T11:58:39;101422.72;;;20.23;27.30
53514;BME280;39768;54.148;12.174;2023-04-28T12:02:41;101415.81;;;20.37;29.56
53514;BME280;39768;54.148;12.174;2023-04-28T12:06:42;101411.97;;;19.12;28.68
53514;BME280;39768;54.148;12.174;2023-04-28T12:11:07;101410.97;;;19.82;27.91
53514;BME280;39768;54.148;12.174;2023-04-28T12:15:13;101410.94;;;20.03;28.54
53514;BME280;39768;54.148;12.174;2023-04-28T12:19:15;101405.63;;;19.13;28.29
53514;BME280;39768;54.148;12.174;2023-04-28T12:23:31;101398.13;;;19.21;28.88
53514;BME280;39768;54.148;12.174;2023-04-28T12:27:33;101395.13;;;18.08;31.57
53514;BME280;39768;54.148;12.174;2023-04-28T12:31:50;101389.44;;;19.36;30.53
53514;BME280;39768;54.148;12.174;2023-04-28T12:35:53;101378.41;;;18.49;30.56
53514;BME280;39768;54.148;12.174;2023-04-28T12:39:56;101382.38;;;19.57;30.57
53514;BME280;39768;54.148;12.174;2023-04-28T12:43:58;101384.03;;;18.91;29.96
53514;BME280;39768;54.148;12.174;2023-04-28T12:48:00;101371.09;;;19.01;30.15
53514;BME280;39768;54.148;12.174;2023-04-28T12:52:03;101372.13;;;19.65;28.58
53514;BME280;39768;54.148;12.174;2023-04-28T12:56:05;101359.31;;;19.50;29.71
53514;BME280;39768;54.148;12.174;2023-04-28T13:00:07;101362.41;;;19.40;32.13
53514;BME280;39768;54.148;12.174;2023-04-28T13:04:09;101360.81;;;19.57;30.90
53514;BME280;39768;54.148;12.174;2023-04-28T13:08:11;101349.94;;;20.02;28.98
53514;BME280;39768;54.148;12.174;2023-04-28T13:12:15;101332.25;;;19.95;29.66
53514;BME280;39768;54.148;12.174;2023-04-28T13:16:17;101337.75;;;19.72;29.45
53514;BME280;39768;54.148;12.174;2023-04-28T13:20:18;101321.09;;;19.41;30.75
53514;BME280;39768;54.148;12.174;2023-04-28T13:24:20;101324.94;;;19.77;30.62
53514;BME280;39768;54.148;12.174;2023-04-28T13:28:21;101318.09;;;20.11;28.63
53514;BME280;39768;54.148;12.174;2023-04-28T13:32:23;101322.69;;;20.29;29.34
53514;BME280;39768;54.148;12.174;2023-04-28T13:36:24;101306.88;;;19.37;30.75
53514;BME280;39768;54.148;12.174;2023-04-28T13:40:27;101301.13;;;19.45;29.87
53514;BME280;39768;54.148;12.174;2023-04-28T13:44:29;101297.66;;;19.64;31.24
53514;BME280;39768;54.148;12.174;2023-04-28T13:48:30;101299.09;;;19.93;29.74
53514;BME280;39768;54.148;12.174;2023-04-28T13:52:32;101293.63;;;19.75;29.84
53514;BME280;39768;54.148;12.174;2023-04-28T13:56:34;101298.66;;;19.40;30.23
53514;BME280;39768;54.148;12.174;2023-04-28T14:00:36;101285.25;;;19.60;30.86
53514;BME280;39768;54.148;12.174;2023-04-28T14:04:38;101284.78;;;19.51;29.66
53514;BME280;39768;54.148;12.174;2023-04-28T14:08:39;101276.47;;;19.97;31.54
53514;BME280;39768;54.148;12.174;2023-04-28T14:12:41;101280.41;;;21.25;30.06
53514;BME280;39768;54.148;12.174;2023-04-28T14:16:46;101277.22;;;21.35;29.65
53514;BME280;39768;54.148;12.174;2023-04-28T14:20:47;101275.81;;;20.52;30.04
53514;BME280;39768;54.148;12.174;2023-04-28T14:24:49;101263.38;;;20.68;30.80
53514;BME280;39768;54.148;12.174;2023-04-28T14:28:51;101270.44;;;20.70;30.50
53514;BME280;39768;54.148;12.174;2023-04-28T14:32:52;101263.09;;;21.10;30.31
53514;BME280;39768;54.148;12.174;2023-04-28T14:36:53;101259.88;;;20.27;31.41
53514;BME280;39768;54.148;12.174;2023-04-28T14:40:55;101255.59;;;20.02;30.37
53514;BME280;39768;54.148;12.174;2023-04-28T14:44:57;101259.81;;;19.46;32.12
53514;BME280;39768;54.148;12.174;2023-04-28T14:49:00;101254.00;;;19.34;32.62
53514;BME280;39768;54.148;12.174;2023-04-28T14:53:02;101247.75;;;19.56;33.24
53514;BME280;39768;54.148;12.174;2023-04-28T14:57:07;101238.50;;;19.41;33.14
53514;BME280;39768;54.148;12.174;2023-04-28T15:01:09;101236.38;;;19.06;34.35
53514;BME280;39768;54.148;12.174;2023-04-28T15:05:10;101234.34;;;19.75;31.76
53514;BME280;39768;54.148;12.174;2023-04-28T15:09:12;101227.28;;;19.52;32.92
53514;BME280;39768;54.148;12.174;2023-04-28T15:13:14;101216.25;;;19.98;33.38
53514;BME280;39768;54.148;12.174;2023-04-28T15:17:15;101216.66;;;19.27;33.73
53514;BME280;39768;54.148;12.174;2023-04-28T15:21:17;101214.84;;;19.27;34.38
53514;BME280;39768;54.148;12.174;2023-04-28T15:25:19;101211.41;;;18.80;34.42
53514;BME280;39768;54.148;12.174;2023-04-28T15:29:21;101212.16;;;19.27;34.90
53514;BME280;39768;54.148;12.174;2023-04-28T15:33:22;101222.09;;;19.67;34.24
53514;BME280;39768;54.148;12.174;2023-04-28T15:41:38;101210.59;;;19.00;34.83
53514;BME280;39768;54.148;12.174;2023-04-28T15:45:39;101202.31;;;19.68;33.46
53514;BME280;39768;54.148;12.174;2023-04-28T15:49:41;101195.25;;;19.02;35.51
53514;BME280;39768;54.148;12.174;2023-04-28T15:53:43;101201.69;;;19.62;35.15
53514;BME280;39768;54.148;12.174;2023-04-28T15:57:45;101195.44;;;19.82;34.70
53514;BME280;39768;54.148;12.174;2023-04-28T16:01:47;101183.66;;;19.64;35.04
53514;BME280;39768;54.148;12.174;2023-04-28T16:05:48;101184.66;;;18.30;36.88
53514;BME280;39768;54.148;12.174;2023-04-28T16:09:50;101172.59;;;19.08;36.88
53514;BME280;39768;54.148;12.174;2023-04-28T16:13:52;101181.44;;;18.44;37.71
53514;BME280;39768;54.148;12.174;2023-04-28T16:17:55;101181.44;;;18.44;36.41
53514;BME280;39768;54.148;12.174;2023-04-28T16:21:57;101174.88;;;18.75;36.57
53514;BME280;39768;54.148;12.174;2023-04-28T16:25:58;101174.47;;;19.27;36.11
53514;BME280;39768;54.148;12.174;2023-04-28T16:30:00;101170.25;;;18.78;35.77
53514;BME280;39768;54.148;12.174;2023-04-28T16:34:01;101168.97;;;18.87;35.84
53514;BME280;39768;54.148;12.174;2023-04-28T16:38:04;101169.34;;;19.21;35.88
53514;BME280;39768;54.148;12.174;2023-04-28T16:42:05;101162.78;;;17.70;40.10
53514;BME280;39768;54.148;12.174;2023-04-28T16:46:07;101159.25;;;16.62;44.82
53514;BME280;39768;54.148;12.174;2023-04-28T16:50:09;101165.75;;;15.65;47.78
53514;BME280;39768;54.148;12.174;2023-04-28T16:54:11;101158.88;;;15.57;48.44
53514;BME280;39768;54.148;12.174;2023-04-28T16:58:13;101159.59;;;15.62;48.23
53514;BME280;39768;54.148;12.174;2023-04-28T17:02:14;101156.00;;;15.63;48.72
53514;BME280;39768;54.148;12.174;2023-04-28T17:06:16;101157.75;;;15.30;47.45
53514;BME280;39768;54.148;12.174;2023-04-28T17:10:17;101154.97;;;15.34;48.75
53514;BME280;39768;54.148;12.174;2023-04-28T17:14:19;101158.09;;;15.17;49.33
53514;BME280;39768;54.148;12.174;2023-04-28T17:18:21;101150.84;;;15.57;48.30
53514;BME280;39768;54.148;12.174;2023-04-28T17:22:22;101155.28;;;15.24;49.09
53514;BME280;39768;54.148;12.174;2023-04-28T17:26:28;101157.00;;;15.26;47.69
53514;BME280;39768;54.148;12.174;2023-04-28T17:30:30;101142.69;;;14.93;47.73
53514;BME280;39768;54.148;12.174;2023-04-28T17:34:32;101150.53;;;15.33;44.37
53514;BME280;39768;54.148;12.174;2023-04-28T17:38:34;101155.09;;;15.30;45.77
53514;BME280;39768;54.148;12.174;2023-04-28T17:42:35;101147.94;;;14.61;46.83
53514;BME280;39768;54.148;12.174;2023-04-28T17:46:37;101151.13;;;14.76;47.05
53514;BME280;39768;54.148;12.174;2023-04-28T17:50:39;101143.56;;;14.18;47.33
53514;BME280;39768;54.148;12.174;2023-04-28T17:54:41;101150.69;;;14.58;46.88
53514;BME280;39768;54.148;12.174;2023-04-28T17:58:42;101144.69;;;14.08;48.17
53514;BME280;39768;54.148;12.174;2023-04-28T18:02:44;101140.16;;;14.10;48.56
53514;BME280;39768;54.148;12.174;2023-04-28T18:06:45;101147.63;;;14.34;49.17
53514;BME280;39768;54.148;12.174;2023-04-28T18:10:47;101148.88;;;14.18;48.55
53514;BME280;39768;54.148;12.174;2023-04-28T18:14:49;101150.69;;;13.76;50.70
53514;BME280;39768;54.148;12.174;2023-04-28T18:18:52;101156.44;;;13.55;51.65
53514;BME280;39768;54.148;12.174;2023-04-28T18:22:53;101143.31;;;13.87;50.96
53514;BME280;39768;54.148;12.174;2023-04-28T18:26:56;101155.81;;;13.85;50.93
53514;BME280;39768;54.148;12.174;2023-04-28T18:31:00;101152.28;;;14.25;48.83
53514;BME280;39768;54.148;12.174;2023-04-28T18:35:02;101147.13;;;13.75;51.10
53514;BME280;39768;54.148;12.174;2023-04-28T18:39:03;101153.97;;;13.89;49.74
53514;BME280;39768;54.148;12.174;2023-04-28T18:43:08;101159.50;;;13.80;49.33
53514;BME280;39768;54.148;12.174;2023-04-28T18:47:11;101164.00;;;14.19;49.54
53514;BME280;39768;54.148;12.174;2023-04-28T18:51:13;101161.50;;;14.10;48.73
53514;BME280;39768;54.148;12.174;2023-04-28T18:55:14;101156.84;;;13.80;48.97
53514;BME280;39768;54.148;12.174;2023-04-28T18:59:16;101161.19;;;13.84;49.48
53514;BME280;39768;54.148;12.174;2023-04-28T19:03:18;101159.25;;;12.95;52.00
53514;BME280;39768;54.148;12.174;2023-04-28T19:07:20;101170.31;;;13.26;50.91
53514;BME280;39768;54.148;12.174;2023-04-28T19:11:24;101170.09;;;12.84;51.83
53514;BME280;39768;54.148;12.174;2023-04-28T19:15:26;101175.75;;;12.63;52.36
53514;BME280;39768;54.148;12.174;2023-04-28T19:19:27;101173.97;;;12.63;54.62
53514;BME280;39768;54.148;12.174;2023-04-28T19:23:30;101167.50;;;12.80;57.10
53514;BME280;39768;54.148;12.174;2023-04-28T19:27:35;101168.88;;;13.05;58.57
53514;BME280;39768;54.148;12.174;2023-04-28T19:31:37;101175.78;;;13.20;61.75
53514;BME280;39768;54.148;12.174;2023-04-28T19:35:38;101179.41;;;13.11;64.75
53514;BME280;39768;54.148;12.174;2023-04-28T19:39:40;101183.69;;;12.67;67.66
53514;BME280;39768;54.148;12.174;2023-04-28T19:43:42;101181.88;;;12.08;71.38
53514;BME280;39768;54.148;12.174;2023-04-28T19:47:43;101182.25;;;12.45;70.32
53514;BME280;39768;54.148;12.174;2023-04-28T19:51:45;101191.44;;;12.23;70.20
53514;BME280;39768;54.148;12.174;2023-04-28T19:55:46;101189.56;;;12.29;71.80
53514;BME280;39768;54.148;12.174;2023-04-28T19:59:48;101181.47;;;11.65;77.19
53514;BME280;39768;54.148;12.174;2023-04-28T20:03:50;101184.28;;;11.51;79.18
53514;BME280;39768;54.148;12.174;2023-04-28T20:07:52;101171.25;;;11.27;79.46
53514;BME280;39768;54.148;12.174;2023-04-28T20:11:56;101180.75;;;11.49;83.80
53514;BME280;39768;54.148;12.174;2023-04-28T20:15:58;101176.16;;;11.65;81.56
53514;BME280;39768;54.148;12.174;2023-04-28T20:20:01;101181.88;;;12.07;80.17
53514;BME280;39768;54.148;12.174;2023-04-28T20:24:05;101183.34;;;11.55;84.08
53514;BME280;39768;54.148;12.174;2023-04-28T20:28:07;101179.69;;;11.67;83.24
53514;BME280;39768;54.148;12.174;2023-04-28T20:32:08;101176.03;;;11.73;81.68
53514;BME280;39768;54.148;12.174;2023-04-28T20:36:11;101172.19;;;11.20;84.13
53514;BME280;39768;54.148;12.174;2023-04-28T20:40:13;101168.72;;;11.12;84.10
53514;BME280;39768;54.148;12.174;2023-04-28T20:44:15;101176.19;;;11.62;83.87
53514;BME280;39768;54.148;12.174;2023-04-28T20:48:17;101173.16;;;11.97;82.96
53514;BME280;39768;54.148;12.174;2023-04-28T20:52:22;101176.59;;;11.21;83.73
53514;BME280;39768;54.148;12.174;2023-04-28T20:56:23;101166.72;;;11.35;82.99
53514;BME280;39768;54.148;12.174;2023-04-28T21:00:25;101164.94;;;11.37;83.80
53514;BME280;39768;54.148;12.174;2023-04-28T21:04:26;101164.56;;;11.71;82.66
53514;BME280;39768;54.148;12.174;2023-04-28T21:08:28;101158.91;;;12.01;80.48
53514;BME280;39768;54.148;12.174;2023-04-28T21:12:30;101161.66;;;11.92;83.27
53514;BME280;39768;54.148;12.174;2023-04-28T21:16:32;101146.19;;;11.51;85.74